Time;durP1;ratioP1;P1;durP2;ratioP2;P2;SDS_P1;SDS_P2;PMS_P1;PMS_P2;Temp;Humidity;BMP_temperature;BMP_pressure;BME280_temperature;BME280_humidity;BME280_pressure;Samples;Min_cycle;Max_cycle;Signal;HPM_P1;HPM_P2
2023/03/10 00:01:16;;;;;;;5.13;1.80;;;9.50;18.60;;;;;;5026061;28;20482;-63
2023/03/10 00:03:44;;;;;;;5.10;1.70;;;9.50;18.50;;;;;;5025848;28;20954;-63
2023/03/10 00:06:13;;;;;;;4.63;1.50;;;9.50;18.50;;;;;;5026931;28;20466;-63
2023/03/10 00:08:40;;;;;;;5.50;1.73;;;9.50;18.60;;;;;;5025374;28;20474;-63
2023/03/10 00:11:07;;;;;;;6.37;1.63;;;9.60;18.60;;;;;;5026007;28;20463;-63
2023/03/10 00:13:34;;;;;;;6.23;1.60;;;9.60;18.70;;;;;;5024224;28;20467;-63
2023/03/10 00:16:00;;;;;;;6.50;1.60;;;9.60;18.80;;;;;;5026472;28;20459;-63
2023/03/10 00:18:28;;;;;;;6.67;1.53;;;9.60;18.80;;;;;;5025311;28;21126;-63
2023/03/10 00:20:57;;;;;;;8.30;1.60;;;9.60;18.90;;;;;;5025695;28;20454;-62
2023/03/10 00:23:24;;;;;;;5.30;1.73;;;9.60;18.80;;;;;;5018101;28;20487;-63
2023/03/10 00:25:54;;;;;;;4.70;1.40;;;9.60;18.90;;;;;;5026260;28;20458;-64
2023/03/10 00:28:21;;;;;;;5.70;1.53;;;9.60;18.90;;;;;;5023900;28;20572;-63
2023/03/10 00:30:57;;;;;;;6.60;1.50;;;9.60;19.00;;;;;;5024905;28;20475;-63
2023/03/10 00:33:24;;;;;;;4.47;1.20;;;9.60;19.00;;;;;;5019123;28;20466;-63
2023/03/10 00:36:03;;;;;;;6.83;1.83;;;9.60;19.40;;;;;;5016927;28;20959;-63
2023/03/10 00:38:30;;;;;;;7.03;1.90;;;9.60;19.00;;;;;;5018026;28;20486;-64
2023/03/10 00:41:00;;;;;;;5.90;1.53;;;9.70;18.90;;;;;;5023285;28;20544;-63
2023/03/10 00:43:27;;;;;;;6.37;1.70;;;9.70;18.90;;;;;;5020424;28;20459;-63
2023/03/10 00:45:54;;;;;;;5.40;1.33;;;9.70;18.90;;;;;;5022991;28;20470;-63
2023/03/10 00:48:21;;;;;;;5.03;1.50;;;9.70;18.90;;;;;;5024467;28;20501;-63
2023/03/10 00:50:48;;;;;;;9.43;1.73;;;9.70;18.90;;;;;;5023472;28;20474;-63
2023/03/10 00:53:16;;;;;;;5.50;1.60;;;9.70;19.00;;;;;;5025504;28;20550;-63
2023/03/10 00:55:43;;;;;;;6.30;1.73;;;9.60;19.00;;;;;;5024183;28;20463;-63
2023/03/10 00:58:10;;;;;;;6.23;1.53;;;9.60;19.10;;;;;;5025162;28;20483;-63
2023/03/10 01:00:37;;;;;;;6.70;2.13;;;9.60;19.20;;;;;;5024105;28;20471;-63
2023/03/10 01:03:03;;;;;;;6.40;1.60;;;9.60;19.20;;;;;;5024120;28;20478;-63
2023/03/10 01:05:30;;;;;;;5.47;1.83;;;9.60;19.20;;;;;;5024905;28;21329;-63
2023/03/10 01:07:57;;;;;;;6.50;1.50;;;9.60;19.20;;;;;;5020823;28;20889;-63
2023/03/10 01:10:25;;;;;;;6.20;2.13;;;9.60;19.20;;;;;;5025523;28;20483;-63
2023/03/10 01:12:52;;;;;;;5.70;1.50;;;9.70;19.20;;;;;;5018980;28;20478;-63
2023/03/10 01:15:18;;;;;;;6.03;2.10;;;9.70;19.10;;;;;;5024495;28;20474;-63
2023/03/10 01:17:45;;;;;;;5.00;1.30;;;9.70;18.80;;;;;;5024927;28;20506;-63
2023/03/10 01:20:15;;;;;;;5.50;1.20;;;9.70;18.80;;;;;;5022460;28;20462;-63
2023/03/10 01:22:42;;;;;;;6.50;1.90;;;9.70;18.90;;;;;;5021297;28;20982;-63
2023/03/10 01:25:13;;;;;;;6.27;2.30;;;9.70;19.00;;;;;;5024875;28;20455;-63
2023/03/10 01:27:42;;;;;;;5.07;1.33;;;9.70;19.10;;;;;;5015045;28;20482;-63
2023/03/10 01:30:10;;;;;;;5.33;1.60;;;9.70;19.20;;;;;;5022047;28;20474;-63
2023/03/10 01:32:37;;;;;;;9.37;1.83;;;9.60;19.10;;;;;;5018888;28;21097;-63
2023/03/10 01:35:04;;;;;;;5.70;1.37;;;9.60;19.10;;;;;;5020606;28;20494;-64
2023/03/10 01:37:31;;;;;;;4.53;1.40;;;9.70;19.10;;;;;;5022388;28;20479;-64
2023/03/10 01:39:58;;;;;;;9.20;1.90;;;9.60;19.00;;;;;;5019620;28;20811;-64
2023/03/10 01:42:25;;;;;;;8.17;1.47;;;9.70;19.00;;;;;;5020044;28;20462;-64
2023/03/10 01:45:07;;;;;;;6.63;1.87;;;9.60;18.90;;;;;;5019882;28;20466;-63
2023/03/10 01:47:34;;;;;;;8.77;1.60;;;9.60;19.00;;;;;;5022625;28;20562;-63
2023/03/10 01:50:02;;;;;;;5.80;1.50;;;9.70;19.00;;;;;;5024720;28;21121;-63
2023/03/10 01:52:32;;;;;;;5.57;1.13;;;9.70;19.00;;;;;;5024335;28;20467;-63
2023/03/10 01:55:05;;;;;;;5.67;2.00;;;9.70;19.10;;;;;;5022628;28;20486;-64
2023/03/10 01:57:37;;;;;;;6.70;1.73;;;9.70;19.10;;;;;;5027052;28;21474;-63
2023/03/10 02:00:11;;;;;;;6.20;1.97;;;9.70;19.10;;;;;;5028326;28;20455;-63
2023/03/10 02:02:39;;;;;;;4.90;1.43;;;9.80;19.00;;;;;;5025118;28;20474;-63
2023/03/10 02:05:07;;;;;;;5.07;1.50;;;9.70;18.90;;;;;;5025021;28;20873;-63
2023/03/10 02:07:35;;;;;;;6.90;1.57;;;9.70;18.90;;;;;;5028691;28;20485;-63
2023/03/10 02:10:03;;;;;;;6.90;1.60;;;9.70;18.80;;;;;;5024501;28;20906;-63
2023/03/10 02:12:30;;;;;;;5.50;1.63;;;9.70;18.80;;;;;;5027251;28;20942;-67
2023/03/10 02:14:57;;;;;;;5.83;1.50;;;9.70;18.90;;;;;;5023651;28;20732;-63
2023/03/10 02:17:26;;;;;;;6.70;1.90;;;9.70;19.10;;;;;;5025799;28;20494;-63
2023/03/10 02:20:05;;;;;;;4.50;1.57;;;9.70;19.20;;;;;;5024197;28;20514;-63
2023/03/10 02:22:32;;;;;;;6.60;1.80;;;9.70;19.30;;;;;;5028132;28;20467;-63
2023/03/10 02:25:07;;;;;;;7.47;1.53;;;9.60;19.10;;;;;;5021544;28;20494;-63
2023/03/10 02:27:38;;;;;;;5.30;1.77;;;9.60;19.10;;;;;;5023811;28;20481;-63
2023/03/10 02:30:09;;;;;;;9.03;1.83;;;9.70;19.30;;;;;;5026423;28;20479;-63
2023/03/10 02:32:40;;;;;;;5.70;2.57;;;9.60;19.30;;;;;;5027101;28;20474;-63
2023/03/10 02:35:07;;;;;;;6.07;1.60;;;9.60;19.40;;;;;;5023866;28;20463;-63
2023/03/10 02:37:35;;;;;;;6.77;1.67;;;9.60;19.50;;;;;;5026751;28;20990;-63
2023/03/10 02:40:04;;;;;;;5.67;1.70;;;9.60;19.60;;;;;;5027324;28;20838;-63
2023/03/10 02:42:34;;;;;;;7.83;2.00;;;9.60;19.70;;;;;;5026952;28;20459;-63
2023/03/10 02:45:03;;;;;;;4.93;1.40;;;9.60;19.80;;;;;;5022023;28;20462;-63
2023/03/10 02:47:30;;;;;;;5.60;1.70;;;9.60;20.00;;;;;;5021489;28;20500;-63
2023/03/10 02:49:56;;;;;;;6.90;2.03;;;9.60;19.90;;;;;;5024823;28;20487;-63
2023/03/10 02:52:29;;;;;;;6.50;1.60;;;9.60;20.00;;;;;;5026665;28;20462;-63
2023/03/10 02:54:55;;;;;;;4.30;1.40;;;9.60;20.30;;;;;;5024741;28;20463;-63
2023/03/10 02:57:22;;;;;;;8.47;1.53;;;9.60;20.60;;;;;;5027113;28;20808;-63
2023/03/10 02:59:49;;;;;;;6.47;1.73;;;9.60;20.60;;;;;;5025797;28;20454;-63
2023/03/10 03:02:17;;;;;;;5.70;1.83;;;9.60;20.70;;;;;;5020956;28;20477;-63
2023/03/10 03:04:43;;;;;;;5.67;1.37;;;9.60;21.50;;;;;;5020944;28;20468;-63
2023/03/10 03:07:10;;;;;;;7.93;2.03;;;9.60;20.70;;;;;;5023482;28;20482;-63
2023/03/10 03:09:37;;;;;;;7.07;1.90;;;9.60;20.60;;;;;;5025786;28;20486;-63
2023/03/10 03:12:04;;;;;;;5.23;1.70;;;9.60;20.70;;;;;;5021373;28;20513;-63
2023/03/10 03:14:30;;;;;;;5.63;1.70;;;9.60;21.00;;;;;;5028148;28;20459;-63
2023/03/10 03:16:57;;;;;;;6.43;1.80;;;9.70;21.70;;;;;;5022108;28;20491;-63
2023/03/10 03:19:26;;;;;;;5.50;1.80;;;9.70;22.70;;;;;;5021164;28;20455;-63
2023/03/10 03:21:52;;;;;;;4.83;1.60;;;9.70;23.20;;;;;;5022672;28;20989;-63
2023/03/10 03:24:20;;;;;;;7.03;1.90;;;9.70;24.10;;;;;;5025158;28;20462;-63
2023/03/10 03:26:47;;;;;;;6.77;2.03;;;9.70;24.90;;;;;;5020238;28;20535;-63
2023/03/10 03:29:14;;;;;;;5.83;1.60;;;9.70;26.00;;;;;;5025016;28;20483;-63
2023/03/10 03:31:41;;;;;;;5.97;1.70;;;9.80;27.00;;;;;;5022459;28;20479;-63
2023/03/10 03:34:08;;;;;;;10.03;2.33;;;9.80;27.40;;;;;;5020776;28;20470;-63
2023/03/10 03:36:36;;;;;;;5.10;1.47;;;9.70;28.00;;;;;;5022356;28;20459;-63
2023/03/10 03:39:05;;;;;;;4.83;1.37;;;9.80;29.10;;;;;;5024837;28;20466;-63
2023/03/10 03:41:32;;;;;;;4.43;1.43;;;9.80;30.00;;;;;;5023960;28;20467;-63
2023/03/10 03:43:58;;;;;;;7.00;1.27;;;9.70;31.10;;;;;;5019261;28;20462;-63
2023/03/10 03:46:25;;;;;;;4.13;0.90;;;9.70;31.70;;;;;;5024013;28;20459;-63
2023/03/10 03:48:52;;;;;;;4.37;1.00;;;9.70;32.30;;;;;;5022629;28;20479;-63
2023/03/10 03:51:19;;;;;;;4.70;1.03;;;9.70;33.00;;;;;;5023249;28;20612;-63
2023/03/10 03:53:47;;;;;;;4.47;0.77;;;9.70;33.90;;;;;;5020519;28;20470;-63
2023/03/10 03:56:13;;;;;;;4.70;0.90;;;9.70;35.10;;;;;;5020484;28;20466;-63
2023/03/10 03:58:40;;;;;;;6.57;2.20;;;9.70;35.30;;;;;;5022304;28;20479;-63
2023/03/10 04:01:07;;;;;;;7.23;0.80;;;9.70;35.50;;;;;;5023306;28;20755;-63
2023/03/10 04:03:33;;;;;;;4.10;0.70;;;9.70;35.90;;;;;;5022105;28;20467;-63
2023/03/10 04:06:00;;;;;;;4.13;0.60;;;9.70;36.10;;;;;;5025724;28;20463;-63
2023/03/10 04:08:27;;;;;;;6.23;0.90;;;9.70;36.10;;;;;;5021021;28;20490;-63
2023/03/10 04:10:56;;;;;;;3.70;0.70;;;9.70;36.20;;;;;;5025228;28;20604;-63
2023/03/10 04:13:22;;;;;;;3.50;0.57;;;9.70;36.30;;;;;;5018903;28;21135;-63
2023/03/10 04:15:54;;;;;;;3.90;0.70;;;9.70;35.90;;;;;;5023477;28;20470;-63
2023/03/10 04:18:21;;;;;;;4.17;0.50;;;9.70;35.40;;;;;;5019485;28;20487;-63
2023/03/10 04:20:48;;;;;;;3.87;0.70;;;9.70;35.00;;;;;;5024036;28;20998;-63
2023/03/10 04:23:15;;;;;;;3.40;0.47;;;9.60;35.30;;;;;;5019883;28;20466;-63
2023/03/10 04:25:42;;;;;;;3.57;0.50;;;9.60;35.20;;;;;;5023902;28;20459;-63
2023/03/10 04:28:11;;;;;;;3.60;0.63;;;9.60;34.90;;;;;;5023777;28;20546;-63
2023/03/10 04:30:37;;;;;;;5.00;0.67;;;9.60;34.70;;;;;;5020707;28;20468;-63
2023/03/10 04:33:04;;;;;;;4.37;0.50;;;9.60;34.60;;;;;;5026386;28;20466;-63
2023/03/10 04:35:31;;;;;;;3.83;0.50;;;9.60;34.80;;;;;;5015800;28;20821;-63
2023/03/10 04:37:58;;;;;;;3.40;0.67;;;9.60;34.80;;;;;;5024813;28;20564;-63
2023/03/10 04:40:24;;;;;;;3.63;0.50;;;9.60;34.90;;;;;;5022275;28;20451;-63
2023/03/10 04:42:51;;;;;;;3.40;0.63;;;9.50;35.10;;;;;;5021529;28;20459;-63
2023/03/10 04:45:19;;;;;;;3.47;0.53;;;9.50;35.40;;;;;;5023149;28;20463;-63
2023/03/10 04:47:46;;;;;;;3.73;0.67;;;9.50;35.30;;;;;;5020113;28;20482;-63
2023/03/10 04:50:16;;;;;;;6.60;0.67;;;9.50;36.00;;;;;;5021477;28;20479;-63
2023/03/10 04:52:43;;;;;;;3.60;0.40;;;9.40;36.00;;;;;;5022537;28;20466;-63
2023/03/10 04:55:11;;;;;;;3.30;0.40;;;9.50;36.20;;;;;;5013308;28;20459;-62
2023/03/10 04:57:38;;;;;;;4.73;0.70;;;9.50;36.30;;;;;;5021272;28;20856;-62
2023/03/10 05:00:07;;;;;;;3.40;0.47;;;9.50;36.40;;;;;;5019361;28;20470;-62
2023/03/10 05:02:36;;;;;;;3.30;0.37;;;9.40;36.60;;;;;;5021975;28;20513;-62
2023/03/10 05:05:03;;;;;;;4.27;0.50;;;9.40;36.80;;;;;;5018652;28;20468;-62
2023/03/10 05:07:30;;;;;;;3.60;0.40;;;9.40;36.90;;;;;;5025197;28;20509;-62
2023/03/10 05:09:57;;;;;;;3.70;0.40;;;9.40;36.90;;;;;;5024911;28;20498;-62
2023/03/10 05:12:24;;;;;;;3.47;0.50;;;9.40;37.10;;;;;;5023372;28;20463;-62
2023/03/10 05:14:51;;;;;;;3.97;0.50;;;9.40;37.20;;;;;;5021592;28;20463;-63
2023/03/10 05:17:17;;;;;;;3.60;0.60;;;9.50;37.10;;;;;;5023279;28;20483;-64
2023/03/10 05:19:45;;;;;;;4.07;1.00;;;9.50;37.20;;;;;;5024720;28;20475;-64
2023/03/10 05:22:12;;;;;;;3.50;0.60;;;9.50;37.10;;;;;;5023785;28;20458;-63
2023/03/10 05:24:39;;;;;;;3.40;0.50;;;9.40;37.00;;;;;;5022661;28;20464;-63
2023/03/10 05:27:07;;;;;;;4.40;0.70;;;9.40;37.10;;;;;;5020844;28;20479;-63
2023/03/10 05:29:34;;;;;;;3.43;0.67;;;9.40;37.00;;;;;;5028667;28;20486;-62
2023/03/10 05:32:00;;;;;;;3.20;0.50;;;9.40;37.30;;;;;;5018030;28;20478;-62
2023/03/10 05:34:27;;;;;;;3.57;0.53;;;9.40;37.10;;;;;;5024137;28;20470;-62
2023/03/10 05:36:55;;;;;;;3.40;0.60;;;9.40;37.10;;;;;;5025550;28;20483;-62
2023/03/10 05:39:22;;;;;;;3.23;0.40;;;9.40;37.00;;;;;;5025821;28;20966;-62
2023/03/10 05:41:49;;;;;;;4.07;0.70;;;9.40;37.10;;;;;;5026726;28;20459;-62
2023/03/10 05:44:16;;;;;;;3.50;0.50;;;9.40;37.40;;;;;;5021937;28;20462;-62
2023/03/10 05:46:42;;;;;;;3.13;0.40;;;9.40;37.30;;;;;;5024670;28;20519;-63
2023/03/10 05:49:09;;;;;;;3.30;0.50;;;9.40;37.20;;;;;;5022012;28;20481;-63
2023/03/10 05:51:36;;;;;;;3.37;0.47;;;9.40;37.20;;;;;;5026487;28;20496;-62
2023/03/10 05:54:05;;;;;;;3.50;0.50;;;9.40;37.10;;;;;;5025591;28;20454;-62
2023/03/10 05:56:31;;;;;;;4.50;0.80;;;9.40;37.20;;;;;;5024117;28;20470;-62
2023/03/10 05:58:58;;;;;;;3.47;0.70;;;9.30;37.30;;;;;;5023035;28;20466;-62
2023/03/10 06:01:25;;;;;;;4.60;0.90;;;9.30;37.10;;;;;;5024518;28;20479;-62
2023/03/10 06:03:52;;;;;;;3.60;0.60;;;9.30;37.20;;;;;;5020312;28;20553;-62
2023/03/10 06:06:19;;;;;;;3.63;0.60;;;9.30;37.20;;;;;;5022207;28;20469;-62
2023/03/10 06:08:45;;;;;;;3.70;0.60;;;9.40;37.10;;;;;;5023256;28;20569;-62
2023/03/10 06:11:13;;;;;;;3.90;0.67;;;9.40;37.10;;;;;;5016522;28;20478;-62
2023/03/10 06:13:40;;;;;;;3.50;0.63;;;9.40;36.90;;;;;;5017779;28;20481;-63
2023/03/10 06:16:07;;;;;;;4.17;0.77;;;9.50;37.00;;;;;;5016400;28;20958;-66
2023/03/10 06:18:34;;;;;;;5.63;0.80;;;9.50;36.60;;;;;;5024558;28;20474;-65
2023/03/10 06:21:05;;;;;;;4.87;0.97;;;9.60;36.30;;;;;;5026326;28;20536;-63
2023/03/10 06:23:31;;;;;;;3.60;0.60;;;9.60;35.90;;;;;;5026220;28;20477;-63
2023/03/10 06:25:59;;;;;;;3.40;0.60;;;9.60;35.70;;;;;;5023712;28;21151;-65
2023/03/10 06:28:31;;;;;;;4.07;0.50;;;9.70;35.40;;;;;;5020579;28;20498;-63
2023/03/10 06:30:58;;;;;;;4.40;0.70;;;9.70;35.30;;;;;;5019975;28;20503;-63
2023/03/10 06:33:25;;;;;;;3.50;0.70;;;9.70;34.90;;;;;;5018410;28;20467;-65
2023/03/10 06:35:53;;;;;;;3.40;0.70;;;9.80;34.50;;;;;;5022037;28;20490;-67
2023/03/10 06:38:20;;;;;;;4.63;0.70;;;9.80;34.00;;;;;;5024773;28;20843;-65
2023/03/10 06:40:46;;;;;;;4.40;0.80;;;9.80;33.80;;;;;;5023963;28;20454;-63
2023/03/10 06:43:13;;;;;;;3.67;0.53;;;9.80;33.70;;;;;;5024360;28;20989;-62
2023/03/10 06:45:42;;;;;;;4.90;0.70;;;9.90;33.30;;;;;;5020261;28;20741;-63
2023/03/10 06:48:09;;;;;;;4.00;0.60;;;9.90;33.10;;;;;;5020865;28;20509;-62
2023/03/10 06:50:39;;;;;;;4.00;0.70;;;10.00;32.60;;;;;;5021919;28;20485;-66
2023/03/10 06:53:06;;;;;;;3.60;0.57;;;10.10;32.30;;;;;;5025126;28;20465;-62
2023/03/10 06:55:33;;;;;;;4.33;0.77;;;10.20;31.60;;;;;;5025820;28;20459;-63
2023/03/10 06:57:59;;;;;;;3.60;0.60;;;10.30;31.30;;;;;;5023255;28;20475;-63
2023/03/10 07:00:26;;;;;;;3.30;0.50;;;10.30;30.90;;;;;;5025212;28;20466;-62
2023/03/10 07:02:54;;;;;;;3.67;0.60;;;10.50;30.20;;;;;;5025268;28;20993;-62
2023/03/10 07:05:23;;;;;;;3.50;0.60;;;10.60;29.80;;;;;;5019688;28;20971;-63
2023/03/10 07:07:50;;;;;;;4.07;0.70;;;10.80;28.90;;;;;;5020041;28;20577;-63
2023/03/10 07:10:18;;;;;;;4.40;0.67;;;10.90;28.10;;;;;;5021442;28;20463;-63
2023/03/10 07:12:47;;;;;;;3.47;0.73;;;11.00;27.50;;;;;;5024076;28;20679;-64
2023/03/10 07:15:14;;;;;;;3.40;0.40;;;11.10;27.30;;;;;;5025845;28;20455;-63
2023/03/10 07:17:41;;;;;;;3.50;0.67;;;11.30;26.70;;;;;;5025601;28;20479;-62
2023/03/10 07:20:11;;;;;;;3.60;0.70;;;11.50;26.30;;;;;;5023231;28;20455;-62
2023/03/10 07:22:37;;;;;;;5.40;0.53;;;11.60;25.70;;;;;;5024595;28;20486;-62
2023/03/10 07:25:06;;;;;;;3.77;1.00;;;11.70;25.20;;;;;;5024505;28;20462;-63
2023/03/10 07:27:33;;;;;;;5.00;0.60;;;12.10;25.20;;;;;;5025576;28;20485;-65
2023/03/10 07:29:59;;;;;;;4.00;0.80;;;12.60;23.20;;;;;;5023048;28;20458;-63
2023/03/10 07:32:26;;;;;;;3.50;0.70;;;13.20;22.00;;;;;;5021192;28;20566;-64
2023/03/10 07:34:53;;;;;;;5.20;0.80;;;14.40;19.30;;;;;;5025507;28;20950;-66
2023/03/10 07:37:21;;;;;;;3.50;0.70;;;15.90;16.30;;;;;;5022201;28;20491;-67
2023/03/10 07:39:48;;;;;;;4.20;0.93;;;17.60;13.10;;;;;;5022611;28;20459;-64
2023/03/10 07:42:15;;;;;;;4.53;0.90;;;19.30;9.70;;;;;;5024928;28;20466;-65
2023/03/10 07:44:42;;;;;;;4.03;0.50;;;20.10;6.90;;;;;;5025738;28;20806;-64
2023/03/10 07:47:08;;;;;;;3.20;0.50;;;19.50;7.10;;;;;;5022241;28;20493;-63
2023/03/10 07:49:35;;;;;;;4.03;0.73;;;18.90;7.00;;;;;;5024640;28;20859;-64
2023/03/10 07:52:02;;;;;;;3.27;0.60;;;18.30;8.30;;;;;;5022356;28;20475;-66
2023/03/10 07:54:30;;;;;;;4.03;0.67;;;18.70;8.00;;;;;;5022906;28;20467;-67
2023/03/10 07:56:57;;;;;;;5.20;0.70;;;19.80;8.30;;;;;;5021074;28;20498;-66
2023/03/10 07:59:23;;;;;;;3.67;0.60;;;20.60;4.50;;;;;;5020455;28;20470;-64
2023/03/10 08:01:50;;;;;;;3.87;0.63;;;22.30;3.60;;;;;;5023936;28;20554;-66
2023/03/10 08:04:17;;;;;;;3.40;0.60;;;24.10;1.50;;;;;;5018148;28;20459;-64
2023/03/10 08:06:45;;;;;;;3.50;0.63;;;25.30;1.00;;;;;;5019485;28;20489;-66
2023/03/10 08:09:11;;;;;;;3.00;0.40;;;25.70;1.00;;;;;;5018534;28;21041;-64
2023/03/10 08:11:39;;;;;;;3.53;0.43;;;25.30;1.00;;;;;;5024644;28;20483;-66
2023/03/10 08:14:06;;;;;;;3.13;0.50;;;24.20;1.00;;;;;;5024092;28;20466;-64
2023/03/10 08:16:33;;;;;;;3.93;0.70;;;22.90;1.00;;;;;;5019712;28;20951;-64
2023/03/10 08:18:59;;;;;;;3.97;0.70;;;21.40;1.00;;;;;;5020327;28;20466;-63
2023/03/10 08:21:26;;;;;;;3.50;0.60;;;20.10;2.70;;;;;;5017448;28;20471;-63
2023/03/10 08:23:53;;;;;;;3.37;0.60;;;19.00;4.60;;;;;;5011633;28;20463;-64
2023/03/10 08:26:20;;;;;;;3.97;0.60;;;18.10;6.00;;;;;;5011078;28;20466;-65
2023/03/10 08:28:48;;;;;;;3.90;0.63;;;17.30;7.60;;;;;;5025328;28;20912;-65
2023/03/10 08:31:17;;;;;;;3.60;0.67;;;16.60;8.40;;;;;;5021376;28;20983;-63
2023/03/10 08:33:44;;;;;;;3.70;0.40;;;15.90;10.00;;;;;;5022551;28;20455;-63
2023/03/10 08:36:14;;;;;;;3.40;0.40;;;15.30;11.10;;;;;;5016250;28;21057;-65
2023/03/10 08:38:41;;;;;;;3.20;0.40;;;14.90;12.10;;;;;;5012486;28;20483;-63
2023/03/10 08:41:12;;;;;;;3.10;0.30;;;14.40;13.20;;;;;;5025455;28;20447;-67
2023/03/10 08:43:39;;;;;;;3.13;0.40;;;14.00;14.00;;;;;;5016749;28;20462;-62
2023/03/10 08:46:08;;;;;;;3.47;0.50;;;13.50;15.00;;;;;;5024238;28;20887;-63
2023/03/10 08:48:34;;;;;;;3.20;0.37;;;13.20;15.60;;;;;;5022025;28;20519;-62
2023/03/10 08:51:01;;;;;;;3.20;0.40;;;12.90;16.20;;;;;;5021839;28;20475;-63
2023/03/10 08:53:28;;;;;;;3.70;0.40;;;12.60;17.00;;;;;;5022609;28;20462;-63
2023/03/10 08:55:55;;;;;;;3.53;0.30;;;12.50;17.60;;;;;;5022420;28;20926;-66
2023/03/10 08:58:23;;;;;;;3.30;0.40;;;12.40;18.00;;;;;;5021709;28;20482;-63
2023/03/10 09:00:50;;;;;;;3.07;0.30;;;12.30;17.90;;;;;;5021136;28;20471;-62
2023/03/10 09:03:18;;;;;;;3.10;0.30;;;12.30;17.80;;;;;;5019655;28;20463;-63
2023/03/10 09:05:45;;;;;;;4.87;0.60;;;12.30;18.40;;;;;;5021545;28;20458;-66
2023/03/10 09:08:12;;;;;;;3.40;0.47;;;12.20;18.40;;;;;;5018079;28;20479;-63
2023/03/10 09:10:40;;;;;;;4.53;0.47;;;12.20;18.10;;;;;;5016807;28;20466;-63
2023/03/10 09:13:07;;;;;;;3.10;0.37;;;12.10;18.30;;;;;;5019069;28;20494;-62
2023/03/10 09:15:39;;;;;;;3.70;0.40;;;12.00;18.60;;;;;;5020518;28;20467;-63
2023/03/10 09:18:06;;;;;;;3.87;0.47;;;11.80;18.90;;;;;;5021768;28;20482;-66
2023/03/10 09:20:35;;;;;;;3.23;0.50;;;11.70;19.50;;;;;;5024387;28;20451;-67
2023/03/10 09:23:02;;;;;;;3.20;0.30;;;11.60;19.80;;;;;;5022851;28;20467;-66
2023/03/10 09:25:29;;;;;;;4.00;0.40;;;11.50;20.20;;;;;;5022924;28;20464;-66
2023/03/10 09:27:56;;;;;;;4.63;0.60;;;11.50;20.20;;;;;;5021936;28;20486;-62
2023/03/10 09:30:23;;;;;;;4.43;0.60;;;11.40;20.10;;;;;;5018672;28;20962;-62
2023/03/10 09:32:50;;;;;;;3.83;0.80;;;11.30;20.50;;;;;;5020030;28;20487;-68
2023/03/10 09:35:17;;;;;;;4.60;0.70;;;11.20;20.80;;;;;;5015675;28;20954;-67
2023/03/10 09:37:45;;;;;;;3.43;0.40;;;11.10;20.90;;;;;;5019076;28;20989;-68
2023/03/10 09:40:17;;;;;;;3.10;0.40;;;11.10;21.40;;;;;;5022921;28;20462;-71
2023/03/10 09:42:45;;;;;;;3.73;0.50;;;11.00;21.10;;;;;;5020880;28;20461;-67
2023/03/10 09:45:23;;;;;;;3.60;0.43;;;11.00;20.70;;;;;;5021628;28;20455;-67
2023/03/10 09:48:04;;;;;;;3.63;0.60;;;11.10;20.90;;;;;;5017687;28;20509;-76
2023/03/10 09:50:34;;;;;;;4.43;0.70;;;11.00;21.30;;;;;;5001900;28;20545;-74
2023/03/10 09:53:07;;;;;;;4.73;0.80;;;11.00;21.40;;;;;;5022547;28;20483;-73
2023/03/10 09:55:39;;;;;;;3.93;0.60;;;11.00;21.20;;;;;;5019524;28;20462;-66
2023/03/10 09:58:10;;;;;;;4.50;0.60;;;11.20;20.50;;;;;;5011824;28;20540;-67
2023/03/10 10:00:40;;;;;;;3.30;0.50;;;11.60;20.00;;;;;;5018141;28;20895;-65
2023/03/10 10:03:16;;;;;;;4.27;0.50;;;12.30;19.00;;;;;;5014735;28;20464;-67
2023/03/10 10:05:44;;;;;;;4.17;0.50;;;13.40;16.90;;;;;;5017905;28;20461;-65
2023/03/10 10:08:21;;;;;;;3.60;0.40;;;14.60;14.00;;;;;;5017697;28;20795;-66
2023/03/10 10:10:52;;;;;;;4.03;0.50;;;15.40;12.80;;;;;;5023049;28;20465;-66
2023/03/10 10:13:21;;;;;;;4.10;0.90;;;17.40;10.10;;;;;;5022061;28;20482;-68
2023/03/10 10:15:53;;;;;;;3.97;0.63;;;19.50;6.10;;;;;;5021144;28;20459;-72
2023/03/10 10:18:25;;;;;;;4.17;0.60;;;21.30;3.70;;;;;;5027060;28;20470;-67
2023/03/10 10:20:57;;;;;;;4.23;0.60;;;21.10;1.60;;;;;;5024675;28;20572;-68
2023/03/10 10:23:33;;;;;;;4.87;0.80;;;20.20;3.90;;;;;;5024515;28;21084;-71
2023/03/10 10:26:08;;;;;;;4.90;0.77;;;20.50;3.10;;;;;;5025240;28;20512;-68
2023/03/10 10:28:41;;;;;;;6.73;0.77;;;19.50;3.20;;;;;;5025073;28;20490;-67
2023/03/10 10:31:13;;;;;;;7.30;0.90;;;18.80;4.50;;;;;;5024032;28;20553;-65
2023/03/10 10:34:02;;;;;;;4.53;0.50;;;18.00;6.00;;;;;;5023229;28;20462;-68
2023/03/10 10:36:31;;;;;;;3.70;0.80;;;17.00;7.30;;;;;;5020059;28;20570;-62
2023/03/10 10:39:01;;;;;;;4.00;0.97;;;16.30;9.20;;;;;;5024357;28;20455;-68
2023/03/10 10:41:30;;;;;;;4.23;1.00;;;15.80;9.90;;;;;;5026809;28;21005;-66
2023/03/10 10:44:00;;;;;;;4.40;0.90;;;15.30;10.80;;;;;;5023219;28;20501;-67
2023/03/10 10:46:28;;;;;;;7.27;0.80;;;14.90;12.10;;;;;;5024750;28;20451;-66
2023/03/10 10:49:09;;;;;;;3.67;0.80;;;14.70;12.60;;;;;;5019294;28;20473;-67
2023/03/10 10:51:37;;;;;;;4.30;0.60;;;14.50;12.90;;;;;;5020417;28;20486;-65
2023/03/10 10:54:22;;;;;;;5.03;0.60;;;14.60;13.60;;;;;;5022584;28;20463;-67
2023/03/10 10:56:53;;;;;;;6.90;1.00;;;14.60;13.60;;;;;;5023085;28;20535;-65
2023/03/10 10:59:21;;;;;;;3.80;0.50;;;15.20;12.90;;;;;;5020991;28;20490;-66
2023/03/10 11:01:51;;;;;;;5.57;1.30;;;15.70;12.30;;;;;;5021359;28;20471;-64
2023/03/10 11:04:18;;;;;;;7.00;0.80;;;15.80;11.00;;;;;;5024023;28;20485;-64
2023/03/10 11:06:45;;;;;;;4.67;1.20;;;15.50;11.80;;;;;;5021534;28;20487;-65
2023/03/10 11:09:17;;;;;;;5.47;0.80;;;15.90;12.00;;;;;;5025184;28;20662;-65
2023/03/10 11:11:53;;;;;;;4.00;0.53;;;16.70;10.10;;;;;;5016755;28;20475;-64
2023/03/10 11:14:34;;;;;;;4.10;0.60;;;16.40;9.80;;;;;;5023873;28;21324;-63
2023/03/10 11:17:05;;;;;;;3.63;0.70;;;15.80;10.10;;;;;;5018749;28;20946;-63
2023/03/10 11:19:40;;;;;;;3.50;0.60;;;15.40;12.10;;;;;;5014380;28;20459;-67
2023/03/10 11:22:17;;;;;;;3.13;0.43;;;15.40;12.30;;;;;;5025891;28;20472;-68
2023/03/10 11:24:52;;;;;;;3.50;0.40;;;15.30;12.40;;;;;;5021380;28;20459;-61
2023/03/10 11:27:26;;;;;;;4.63;0.50;;;15.20;12.60;;;;;;5021959;28;20474;-61
2023/03/10 11:30:05;;;;;;;4.43;0.60;;;15.20;13.20;;;;;;5026216;28;20467;-62
2023/03/10 11:32:42;;;;;;;4.23;0.60;;;15.60;13.10;;;;;;5024166;28;20478;-62
2023/03/10 11:35:21;;;;;;;5.03;0.53;;;15.70;11.80;;;;;;5022114;28;20471;-64
2023/03/10 11:37:51;;;;;;;3.60;0.70;;;15.60;11.40;;;;;;5025874;28;20486;-63
2023/03/10 11:40:27;;;;;;;4.90;0.63;;;15.60;11.80;;;;;;5025418;28;20464;-63
2023/03/10 11:42:59;;;;;;;6.30;0.67;;;15.60;11.10;;;;;;5020751;28;20459;-64
2023/03/10 11:45:32;;;;;;;3.73;0.40;;;15.60;11.90;;;;;;5022758;28;20468;-63
2023/03/10 11:48:16;;;;;;;3.27;0.50;;;15.60;11.70;;;;;;5018910;28;20487;-63
2023/03/10 11:50:49;;;;;;;7.17;2.33;;;15.80;11.70;;;;;;5024325;28;20467;-63
2023/03/10 11:53:22;;;;;;;5.20;1.30;;;15.70;10.90;;;;;;5024266;28;20467;-63
2023/03/10 11:55:52;;;;;;;3.30;0.53;;;15.50;10.90;;;;;;5025543;28;20463;-63
2023/03/10 11:58:24;;;;;;;3.70;0.40;;;15.50;11.50;;;;;;5023533;28;20482;-63
2023/03/10 12:00:52;;;;;;;4.07;0.60;;;15.40;11.40;;;;;;5019658;28;21010;-63
2023/03/10 12:03:25;;;;;;;4.70;0.70;;;15.50;12.20;;;;;;5025778;28;20451;-63
2023/03/10 12:05:57;;;;;;;3.70;0.60;;;15.50;11.90;;;;;;5016885;28;20474;-63
2023/03/10 12:08:29;;;;;;;3.23;0.40;;;15.50;12.00;;;;;;5023950;28;20479;-63
2023/03/10 12:11:00;;;;;;;3.37;0.43;;;15.40;11.80;;;;;;5018782;28;20459;-62
2023/03/10 12:13:32;;;;;;;4.17;0.50;;;15.10;12.40;;;;;;5025349;28;21157;-63
2023/03/10 12:16:03;;;;;;;3.30;0.40;;;14.90;12.80;;;;;;5020978;28;20466;-63
2023/03/10 12:18:30;;;;;;;3.87;0.70;;;14.80;12.70;;;;;;5023212;28;20479;-63
2023/03/10 12:21:23;;;;;;;3.73;0.60;;;14.70;13.00;;;;;;5023034;28;20463;-63
2023/03/10 12:23:52;;;;;;;4.00;0.40;;;14.50;13.80;;;;;;5024860;28;21190;-63
2023/03/10 12:26:56;;;;;;;4.13;0.53;;;14.40;14.70;;;;;;5024806;28;20964;-63
2023/03/10 12:29:33;;;;;;;3.33;0.50;;;14.20;14.70;;;;;;5024503;28;20490;-63
2023/03/10 12:31:59;;;;;;;4.00;0.70;;;14.00;14.80;;;;;;5023744;28;20475;-63
2023/03/10 12:34:31;;;;;;;3.80;0.70;;;13.90;15.40;;;;;;5018984;28;20474;-63
2023/03/10 12:37:05;;;;;;;4.53;0.50;;;13.80;15.10;;;;;;5023752;28;20491;-63
2023/03/10 12:39:37;;;;;;;3.57;0.57;;;13.60;15.00;;;;;;5018908;28;20463;-63
2023/03/10 12:42:05;;;;;;;3.40;0.40;;;13.40;15.60;;;;;;5017350;28;20459;-63
2023/03/10 12:44:48;;;;;;;3.40;0.53;;;13.30;16.70;;;;;;5025364;28;20470;-63
2023/03/10 12:47:45;;;;;;;4.53;0.40;;;13.30;16.60;;;;;;5023214;28;21006;-63
2023/03/10 12:50:27;;;;;;;4.17;0.60;;;13.30;16.80;;;;;;5023559;28;20470;-63
2023/03/10 12:53:03;;;;;;;3.90;0.40;;;13.40;16.10;;;;;;5023611;28;21018;-63
2023/03/10 12:55:30;;;;;;;3.43;0.50;;;13.40;16.30;;;;;;5020557;28;20475;-63
2023/03/10 12:58:03;;;;;;;4.23;0.47;;;13.40;16.20;;;;;;5023786;28;20483;-63
2023/03/10 13:00:39;;;;;;;3.80;0.60;;;13.20;16.60;;;;;;5022204;28;20500;-63
2023/03/10 13:03:18;;;;;;;3.47;0.50;;;13.20;17.30;;;;;;5023817;28;20451;-62